createdAt,value
2017-03-24T00:00:06.966Z,8.1
2017-03-24T00:01:17.966Z,8.11
2017-03-24T00:02:28.999Z,8.14
2017-03-24T00:03:40.215Z,8.14
2017-03-24T00:04:51.206Z,8.11
2017-03-24T00:06:02.439Z,8.21
2017-03-24T00:07:13.434Z,8.14
2017-03-24T00:08:24.470Z,8.16
2017-03-24T00:09:35.469Z,8.13
2017-03-24T00:10:46.463Z,8.16
2017-03-24T00:11:57.455Z,8.19
2017-03-24T00:13:08.453Z,8.1
2017-03-24T00:14:19.652Z,8.13
2017-03-24T00:15:31.048Z,8.16
2017-03-24T00:16:42.300Z,8.19
2017-03-24T00:17:53.289Z,8.19
2017-03-24T00:19:04.280Z,8.16
2017-03-24T00:20:15.287Z,8.11
2017-03-24T00:21:26.280Z,8.11
2017-03-24T00:22:37.321Z,8.19
2017-03-24T00:23:48.328Z,8.11
2017-03-24T00:24:59.537Z,8.14
2017-03-24T00:26:10.533Z,8.16
2017-03-24T00:27:21.778Z,8.09
2017-03-24T00:28:32.777Z,8.11
2017-03-24T00:29:43.969Z,8.11
2017-03-24T00:30:55.171Z,8.16
2017-03-24T00:32:06.165Z,8.13
2017-03-24T00:33:17.163Z,8.17
2017-03-24T00:34:28.158Z,8.16
2017-03-24T00:35:39.149Z,8.16
2017-03-24T00:36:50.142Z,8.19
2017-03-24T00:38:01.337Z,8.17
2017-03-24T00:39:12.383Z,8.14
2017-03-24T00:40:23.384Z,8.14
2017-03-24T00:41:34.377Z,8.11
2017-03-24T00:42:45.369Z,8.14
2017-03-24T00:43:56.622Z,8.16
2017-03-24T00:45:07.609Z,8.17
2017-03-24T00:46:18.606Z,8.1
2017-03-24T00:47:29.601Z,8.16
2017-03-24T00:48:40.603Z,8.17
2017-03-24T00:49:51.617Z,8.16
2017-03-24T00:51:02.618Z,8.13
2017-03-24T00:52:13.804Z,8.17
2017-03-24T00:53:24.796Z,8.21
2017-03-24T00:54:36.038Z,8.13
2017-03-24T00:55:47.024Z,8.14
2017-03-24T00:56:58.015Z,8.14
2017-03-24T00:58:09.058Z,8.16
2017-03-24T00:59:20.266Z,8.21
2017-03-24T01:00:31.264Z,8.16
2017-03-24T01:01:42.249Z,8.16
2017-03-24T01:02:53.457Z,8.16
2017-03-24T01:04:04.451Z,8.13
2017-03-24T01:05:15.901Z,8.1
2017-03-24T01:06:26.887Z,8.13
2017-03-24T01:07:37.879Z,8.14
2017-03-24T01:08:48.883Z,8.11
2017-03-24T01:09:59.926Z,8.1
2017-03-24T01:11:10.921Z,8.11
2017-03-24T01:12:21.911Z,8.14
2017-03-24T01:13:33.113Z,8.11
2017-03-24T01:14:44.300Z,8.16
2017-03-24T01:15:55.287Z,8.22
2017-03-24T01:17:06.482Z,8.1
2017-03-24T01:18:17.476Z,8.09
2017-03-24T01:19:28.477Z,8.09
2017-03-24T01:20:39.474Z,8.03
2017-03-24T01:21:50.457Z,8.07
2017-03-24T01:23:01.650Z,8.04
2017-03-24T01:24:12.848Z,8.04
2017-03-24T01:25:23.836Z,8.1
2017-03-24T01:26:35.021Z,7.98
2017-03-24T01:27:46.057Z,7.98
2017-03-24T01:28:57.058Z,8.06
2017-03-24T01:30:08.298Z,8.03
2017-03-24T01:31:19.300Z,7.95
2017-03-24T01:32:30.499Z,7.99
2017-03-24T01:33:41.901Z,7.92
2017-03-24T01:34:53.307Z,7.96
2017-03-24T01:36:04.300Z,7.95
2017-03-24T01:37:15.541Z,7.93
2017-03-24T01:38:26.541Z,7.91
2017-03-24T01:39:37.531Z,7.91
2017-03-24T01:40:48.519Z,7.99
2017-03-24T01:41:59.742Z,7.96
2017-03-24T01:43:10.944Z,7.99
2017-03-24T01:44:21.940Z,8.01
2017-03-24T01:45:33.144Z,8.01
2017-03-24T01:46:44.135Z,7.92
2017-03-24T01:47:55.182Z,7.96
2017-03-24T01:49:06.388Z,7.95
2017-03-24T01:50:17.376Z,7.96
2017-03-24T01:51:28.359Z,7.95
2017-03-24T01:52:39.356Z,7.98
2017-03-24T01:53:50.350Z,8.01
2017-03-24T01:55:01.350Z,7.98
2017-03-24T01:56:12.348Z,7.99
2017-03-24T01:57:23.545Z,7.98
2017-03-24T01:58:34.982Z,7.93
2017-03-24T01:59:45.977Z,7.95
2017-03-24T02:00:57.012Z,7.96
2017-03-24T02:02:08.217Z,7.95
2017-03-24T02:03:19.410Z,7.93
2017-03-24T02:04:30.614Z,7.98
2017-03-24T02:05:41.609Z,7.92
2017-03-24T02:06:52.597Z,7.99
2017-03-24T02:08:03.593Z,7.92
2017-03-24T02:09:14.635Z,7.99
2017-03-24T02:10:25.679Z,7.92
2017-03-24T02:11:36.673Z,7.99
2017-03-24T02:12:47.666Z,7.99
2017-03-24T02:13:58.666Z,7.93
2017-03-24T02:15:09.664Z,7.96
2017-03-24T02:16:20.655Z,7.93
2017-03-24T02:17:31.845Z,7.98
2017-03-24T02:18:42.835Z,7.98
2017-03-24T02:19:54.078Z,8.01
2017-03-24T02:21:05.264Z,7.96
2017-03-24T02:22:16.258Z,7.95
2017-03-24T02:23:27.249Z,8.01
2017-03-24T02:24:38.320Z,7.98
2017-03-24T02:25:49.308Z,7.99
2017-03-24T02:27:00.291Z,8.01
2017-03-24T02:28:11.281Z,7.91
2017-03-24T02:29:22.269Z,7.89
2017-03-24T02:30:33.322Z,7.83
2017-03-24T02:31:44.309Z,7.85
2017-03-24T02:32:55.310Z,7.89
2017-03-24T02:34:06.312Z,7.91
2017-03-24T02:35:17.299Z,7.82
2017-03-24T02:36:28.492Z,7.82
2017-03-24T02:37:39.695Z,7.83
2017-03-24T02:38:50.700Z,7.86
2017-03-24T02:40:01.719Z,7.83
2017-03-24T02:41:12.765Z,7.82
2017-03-24T02:42:23.755Z,7.8
2017-03-24T02:43:34.750Z,7.77
2017-03-24T02:44:45.742Z,7.82
2017-03-24T02:45:56.729Z,7.83
2017-03-24T02:47:07.968Z,7.8
2017-03-24T02:48:18.959Z,7.88
2017-03-24T02:49:29.964Z,7.85
2017-03-24T02:50:40.956Z,7.91
2017-03-24T02:51:51.950Z,7.86
2017-03-24T02:53:02.938Z,7.82
2017-03-24T02:54:13.957Z,7.89
2017-03-24T02:55:24.956Z,7.93
2017-03-24T02:56:35.945Z,7.88
2017-03-24T02:57:47.181Z,7.92
2017-03-24T02:58:58.433Z,7.88
2017-03-24T03:00:09.428Z,7.91
2017-03-24T03:01:20.420Z,7.85
2017-03-24T03:02:31.403Z,7.89
2017-03-24T03:03:42.406Z,7.86
2017-03-24T03:04:53.596Z,7.83
2017-03-24T03:06:04.602Z,7.86
2017-03-24T03:07:15.588Z,7.82
2017-03-24T03:08:26.626Z,7.78
2017-03-24T03:09:37.817Z,7.78
2017-03-24T03:10:48.805Z,7.83
2017-03-24T03:11:59.794Z,7.82
2017-03-24T03:13:10.778Z,7.82
2017-03-24T03:14:21.988Z,7.77
2017-03-24T03:15:33.182Z,7.77
2017-03-24T03:16:44.177Z,7.73
2017-03-24T03:17:55.164Z,7.78
2017-03-24T03:19:06.213Z,7.77
2017-03-24T03:20:17.405Z,7.74
2017-03-24T03:21:28.396Z,7.78
2017-03-24T03:22:39.391Z,7.85
2017-03-24T03:23:50.392Z,7.75
2017-03-24T03:25:01.400Z,7.78
2017-03-24T03:26:12.393Z,7.77
2017-03-24T03:27:23.393Z,7.77
2017-03-24T03:28:34.593Z,7.74
2017-03-24T03:29:45.896Z,7.78
2017-03-24T03:30:56.883Z,7.73
2017-03-24T03:32:07.869Z,7.77
2017-03-24T03:33:18.855Z,7.77
2017-03-24T03:34:29.853Z,7.78
2017-03-24T03:35:41.039Z,7.7
2017-03-24T03:36:52.232Z,7.74
2017-03-24T03:38:03.229Z,7.74
2017-03-24T03:39:14.238Z,7.75
2017-03-24T03:40:25.224Z,7.77
2017-03-24T03:41:36.225Z,7.77
2017-03-24T03:42:47.417Z,7.75
2017-03-24T03:43:58.412Z,7.73
2017-03-24T03:45:09.406Z,7.71
2017-03-24T03:46:20.391Z,7.73
2017-03-24T03:47:31.831Z,7.74
2017-03-24T03:48:42.824Z,7.75
2017-03-24T03:49:53.827Z,7.74
2017-03-24T03:51:05.024Z,7.77
2017-03-24T03:52:16.232Z,7.77
2017-03-24T03:53:27.221Z,7.78
2017-03-24T03:54:38.209Z,7.8
2017-03-24T03:55:49.211Z,7.74
2017-03-24T03:57:00.443Z,7.73
2017-03-24T03:58:11.430Z,7.67
2017-03-24T03:59:22.424Z,7.64
2017-03-24T04:00:33.418Z,7.58
2017-03-24T04:01:44.408Z,7.67
2017-03-24T04:02:55.598Z,7.58
2017-03-24T04:04:06.600Z,7.63
2017-03-24T04:05:17.595Z,7.59
2017-03-24T04:06:28.587Z,7.54
2017-03-24T04:07:39.640Z,7.63
2017-03-24T04:08:50.633Z,7.56
2017-03-24T04:10:01.644Z,7.64
2017-03-24T04:11:12.615Z,7.58
2017-03-24T04:12:23.607Z,7.51
2017-03-24T04:13:34.799Z,7.63
2017-03-24T04:14:45.999Z,7.61
2017-03-24T04:15:56.991Z,7.55
2017-03-24T04:17:08.181Z,7.55
2017-03-24T04:18:19.230Z,7.55
2017-03-24T04:19:30.229Z,7.59
2017-03-24T04:20:41.224Z,7.54
2017-03-24T04:21:52.217Z,7.58
2017-03-24T04:23:03.208Z,7.56
2017-03-24T04:24:14.414Z,7.55
2017-03-24T04:25:25.409Z,7.44
2017-03-24T04:26:36.395Z,7.47
2017-03-24T04:27:47.397Z,7.4
2017-03-24T04:28:58.383Z,7.41
2017-03-24T04:30:09.370Z,7.48
2017-03-24T04:31:20.365Z,7.48
2017-03-24T04:32:31.351Z,7.39
2017-03-24T04:33:42.344Z,7.39
2017-03-24T04:34:53.595Z,7.44
2017-03-24T04:36:04.587Z,7.37
2017-03-24T04:37:15.777Z,7.41
2017-03-24T04:38:26.770Z,7.36
2017-03-24T04:39:37.956Z,7.4
2017-03-24T04:40:48.952Z,7.33
2017-03-24T04:41:59.936Z,7.26
2017-03-24T04:43:10.931Z,7.23
2017-03-24T04:44:21.929Z,7.12
2017-03-24T04:45:32.969Z,7.13
2017-03-24T04:46:44.157Z,7.09
2017-03-24T04:47:55.153Z,7.09
2017-03-24T04:49:06.158Z,7.05
2017-03-24T04:50:17.174Z,7.03
2017-03-24T04:51:28.154Z,6.98
2017-03-24T04:52:39.148Z,6.95
2017-03-24T04:53:50.344Z,6.93
2017-03-24T04:55:01.535Z,6.93
2017-03-24T04:56:12.785Z,6.9
2017-03-24T04:57:23.986Z,6.95
2017-03-24T04:58:34.989Z,6.9
2017-03-24T04:59:45.987Z,6.91
2017-03-24T05:00:57.171Z,6.94
2017-03-24T05:02:08.166Z,6.94
2017-03-24T05:03:19.364Z,6.8
2017-03-24T05:04:30.367Z,6.82
2017-03-24T05:05:41.359Z,6.79
2017-03-24T05:06:52.395Z,6.82
2017-03-24T05:08:03.382Z,6.94
2017-03-24T05:09:14.380Z,6.91
2017-03-24T05:10:25.379Z,6.86
2017-03-24T05:11:36.574Z,6.83
2017-03-24T05:12:47.551Z,6.93
2017-03-24T05:13:58.539Z,6.85
2017-03-24T05:15:09.532Z,6.82
2017-03-24T05:16:20.728Z,6.88
2017-03-24T05:17:31.704Z,6.85
2017-03-24T05:18:42.752Z,6.93
2017-03-24T05:19:54.005Z,6.93
2017-03-24T05:21:04.995Z,6.9
2017-03-24T05:22:15.992Z,6.93
2017-03-24T05:23:27.191Z,6.95
2017-03-24T05:24:38.379Z,6.88
2017-03-24T05:25:49.355Z,6.88
2017-03-24T05:27:00.349Z,6.94
2017-03-24T05:28:11.407Z,6.94
2017-03-24T05:29:22.405Z,6.97
2017-03-24T05:30:33.404Z,6.95
2017-03-24T05:31:44.423Z,6.94
2017-03-24T05:32:55.412Z,6.86
2017-03-24T05:34:06.616Z,6.98
2017-03-24T05:35:17.815Z,6.91
2017-03-24T05:36:28.806Z,6.93
2017-03-24T05:37:40.001Z,6.91
2017-03-24T05:38:51.456Z,6.9
2017-03-24T05:40:02.502Z,6.85
2017-03-24T05:41:13.495Z,6.94
2017-03-24T05:42:24.497Z,6.91
2017-03-24T05:43:35.696Z,6.79
2017-03-24T05:44:46.680Z,6.97
2017-03-24T05:45:57.697Z,6.83
2017-03-24T05:47:08.912Z,6.91
2017-03-24T05:48:19.907Z,6.85
2017-03-24T05:49:31.164Z,6.94
2017-03-24T05:50:42.165Z,6.94
2017-03-24T05:51:53.358Z,6.85
2017-03-24T05:53:04.350Z,6.88
2017-03-24T05:54:15.348Z,6.97
2017-03-24T05:55:26.401Z,7.03
2017-03-24T05:56:37.630Z,7.03
2017-03-24T05:57:48.626Z,7.18
2017-03-24T05:58:59.628Z,7.22
2017-03-24T06:00:10.821Z,7.21
2017-03-24T06:01:21.809Z,7.22
2017-03-24T06:02:32.795Z,7.31
2017-03-24T06:03:43.793Z,7.37
2017-03-24T06:04:54.779Z,7.39
2017-03-24T06:06:06.173Z,7.4
2017-03-24T06:07:17.369Z,7.37
2017-03-24T06:08:28.577Z,7.39
2017-03-24T06:09:39.573Z,7.37
2017-03-24T06:10:50.564Z,7.31
2017-03-24T06:12:01.813Z,7.39
2017-03-24T06:13:12.810Z,7.39
2017-03-24T06:14:24.002Z,7.45
2017-03-24T06:15:34.990Z,7.47
2017-03-24T06:16:46.220Z,7.41
2017-03-24T06:17:57.225Z,7.44
2017-03-24T06:19:08.434Z,7.39
2017-03-24T06:20:19.421Z,7.41
2017-03-24T06:21:30.411Z,7.37
2017-03-24T06:22:41.674Z,7.49
2017-03-24T06:23:52.877Z,7.63
2017-03-24T06:25:03.894Z,7.54
2017-03-24T06:26:14.888Z,7.56
2017-03-24T06:27:26.075Z,7.61
2017-03-24T06:28:37.074Z,7.48
2017-03-24T06:29:48.266Z,7.49
2017-03-24T06:30:59.263Z,7.48
2017-03-24T06:32:10.252Z,7.45
2017-03-24T06:33:21.498Z,7.48
2017-03-24T06:34:32.690Z,7.51
2017-03-24T06:35:43.706Z,7.44
2017-03-24T06:36:54.701Z,7.34
2017-03-24T06:38:05.693Z,7.4
2017-03-24T06:39:16.934Z,7.41
2017-03-24T06:40:28.125Z,7.26
2017-03-24T06:41:39.110Z,7.41
2017-03-24T06:42:50.113Z,7.45
2017-03-24T06:44:01.115Z,7.58
2017-03-24T06:45:12.118Z,7.56
2017-03-24T06:46:23.311Z,7.56
2017-03-24T06:47:34.292Z,7.64
2017-03-24T06:48:45.292Z,7.77
2017-03-24T06:49:56.299Z,7.78
2017-03-24T06:51:07.306Z,8.09
2017-03-24T06:52:18.299Z,8.24
2017-03-24T06:53:29.308Z,8.34
2017-03-24T06:54:40.308Z,8.69
2017-03-24T06:55:51.542Z,9
2017-03-24T06:57:02.529Z,9.2
2017-03-24T06:58:13.527Z,9.55
2017-03-24T06:59:24.532Z,9.77
2017-03-24T07:00:35.570Z,10.03
2017-03-24T07:01:46.576Z,10.1
2017-03-24T07:02:57.572Z,10.11
2017-03-24T07:04:08.774Z,10.29
2017-03-24T07:05:19.785Z,10.44
2017-03-24T07:06:30.886Z,10.69
2017-03-24T07:07:41.939Z,10.91
2017-03-24T07:08:52.998Z,10.97
2017-03-24T07:10:04.397Z,10.87
2017-03-24T07:11:15.611Z,10.88
2017-03-24T07:12:26.611Z,10.85
2017-03-24T07:13:37.614Z,10.9
2017-03-24T07:14:48.608Z,10.94
2017-03-24T07:15:59.606Z,10.79
2017-03-24T07:17:10.666Z,10.88
2017-03-24T07:18:21.877Z,10.9
2017-03-24T07:19:32.881Z,10.9
2017-03-24T07:20:43.878Z,10.84
2017-03-24T07:21:54.879Z,11.03
2017-03-24T07:23:05.891Z,11.16
2017-03-24T07:24:17.094Z,11
2017-03-24T07:25:28.102Z,11.09
2017-03-24T07:26:39.094Z,10.98
2017-03-24T07:27:50.103Z,10.88
2017-03-24T07:29:01.106Z,10.84
2017-03-24T07:30:12.120Z,10.72
2017-03-24T07:31:23.122Z,10.36
2017-03-24T07:32:34.331Z,10.33
2017-03-24T07:33:45.335Z,10.14
2017-03-24T07:34:56.364Z,10.25
2017-03-24T07:36:07.553Z,10.41
2017-03-24T07:37:18.754Z,10.47
2017-03-24T07:38:29.756Z,10.41
2017-03-24T07:39:40.995Z,10.18
2017-03-24T07:40:51.978Z,10.13
2017-03-24T07:42:02.970Z,10.13
2017-03-24T07:43:14.224Z,10.18
2017-03-24T07:44:25.250Z,10.35
2017-03-24T07:45:36.260Z,10.38
2017-03-24T07:46:47.266Z,10.25
2017-03-24T07:47:58.261Z,10.17
2017-03-24T07:49:09.319Z,10.1
2017-03-24T07:50:20.314Z,10.1
2017-03-24T07:51:31.299Z,10.15
2017-03-24T07:52:42.507Z,10.29
2017-03-24T07:53:53.721Z,10.57
2017-03-24T07:55:04.730Z,10.59
2017-03-24T07:56:15.735Z,10.75
2017-03-24T07:57:26.735Z,11.06
2017-03-24T07:58:37.738Z,11.33
2017-03-24T07:59:49.180Z,11.64
2017-03-24T08:01:00.167Z,11.56
2017-03-24T08:02:11.160Z,11.59
2017-03-24T08:03:22.557Z,11.7
2017-03-24T08:04:33.552Z,11.86
2017-03-24T08:05:44.547Z,11.94
2017-03-24T08:06:55.741Z,12.05
2017-03-24T08:08:06.735Z,12.33
2017-03-24T08:09:17.931Z,12.59
2017-03-24T08:10:28.932Z,12.88
2017-03-24T08:11:39.933Z,13.07
2017-03-24T08:12:50.919Z,13.29
2017-03-24T08:14:01.911Z,13.42
2017-03-24T08:15:12.910Z,13.32
2017-03-24T08:16:24.167Z,13.17
2017-03-24T08:17:35.167Z,12.89
2017-03-24T08:18:46.175Z,12.8
2017-03-24T08:19:57.166Z,13.01
2017-03-24T08:21:08.172Z,13.06
2017-03-24T08:22:19.224Z,13.14
2017-03-24T08:23:30.227Z,13.24
2017-03-24T08:24:41.230Z,13.17
2017-03-24T08:25:52.235Z,13.02
2017-03-24T08:27:03.240Z,13.14
2017-03-24T08:28:14.240Z,13.4
2017-03-24T08:29:25.245Z,13.37
2017-03-24T08:30:36.247Z,13.63
2017-03-24T08:31:47.708Z,13.73
2017-03-24T08:32:58.707Z,13.48
2017-03-24T08:34:10.111Z,13.27
2017-03-24T08:35:21.121Z,13.35
2017-03-24T08:36:32.126Z,13.31
2017-03-24T08:37:43.144Z,13.47
2017-03-24T08:38:54.145Z,13.78
2017-03-24T08:40:05.149Z,14.03
2017-03-24T08:41:16.356Z,13.78
2017-03-24T08:42:27.419Z,13.37
2017-03-24T08:43:38.419Z,13.27
2017-03-24T08:44:49.431Z,13.06
2017-03-24T08:46:00.430Z,13.28
2017-03-24T08:47:11.642Z,13.36
2017-03-24T08:48:22.648Z,13.45
2017-03-24T08:49:34.050Z,13.55
2017-03-24T08:50:45.258Z,13.68
2017-03-24T08:51:56.266Z,13.63
2017-03-24T08:53:07.267Z,13.57
2017-03-24T08:54:18.274Z,13.78
2017-03-24T08:55:29.480Z,14.05
2017-03-24T08:56:40.478Z,13.99
2017-03-24T08:57:51.477Z,13.97
2017-03-24T08:59:02.731Z,14.02
2017-03-24T09:00:13.745Z,13.87
2017-03-24T09:01:24.752Z,13.79
2017-03-24T09:02:35.754Z,13.9
2017-03-24T09:03:46.753Z,14.01
2017-03-24T09:04:58.014Z,14.06
2017-03-24T09:06:09.223Z,14.23
2017-03-24T09:07:20.226Z,14.03
2017-03-24T09:08:31.227Z,13.69
2017-03-24T09:09:42.284Z,13.57
2017-03-24T09:10:53.305Z,13.54
2017-03-24T09:12:04.307Z,13.29
2017-03-24T09:13:15.513Z,13.21
2017-03-24T09:14:26.510Z,13.17
2017-03-24T09:15:37.722Z,13.36
2017-03-24T09:16:48.721Z,13.66
2017-03-24T09:17:59.722Z,13.69
2017-03-24T09:19:10.723Z,13.93
2017-03-24T09:20:21.816Z,14.21
2017-03-24T09:21:32.830Z,14.31
2017-03-24T09:22:43.839Z,14.45
2017-03-24T09:23:55.082Z,14.52
2017-03-24T09:25:06.084Z,14.59
2017-03-24T09:26:17.083Z,14.51
2017-03-24T09:27:28.085Z,14.41
2017-03-24T09:28:39.292Z,14.41
2017-03-24T09:29:50.291Z,14.63
2017-03-24T09:31:01.293Z,14.61
2017-03-24T09:32:12.291Z,14.61
2017-03-24T09:33:23.497Z,14.85
2017-03-24T09:34:34.502Z,14.9
2017-03-24T09:35:45.518Z,15.15
2017-03-24T09:36:56.778Z,15.31
2017-03-24T09:38:07.784Z,15.45
2017-03-24T09:39:18.790Z,15.52
2017-03-24T09:40:29.799Z,15.52
2017-03-24T09:41:40.798Z,15.51
2017-03-24T09:42:51.803Z,15.37
2017-03-24T09:44:03.018Z,15.22
2017-03-24T09:45:14.027Z,14.94
2017-03-24T09:46:25.241Z,14.66
2017-03-24T09:47:36.503Z,14.64
2017-03-24T09:48:47.512Z,14.52
2017-03-24T09:49:58.516Z,14.53
2017-03-24T09:51:09.553Z,14.51
2017-03-24T09:52:20.559Z,14.42
2017-03-24T09:53:31.564Z,14.05
2017-03-24T09:54:42.568Z,13.86
2017-03-24T09:55:53.778Z,13.73
2017-03-24T09:57:04.775Z,13.88
2017-03-24T09:58:15.826Z,13.87
2017-03-24T09:59:26.836Z,13.51
2017-03-24T10:00:38.033Z,13.65
2017-03-24T10:01:49.037Z,13.84
2017-03-24T10:03:00.039Z,14.13
2017-03-24T10:04:11.243Z,14.45
2017-03-24T10:05:22.247Z,14.48
2017-03-24T10:06:33.253Z,14.61
2017-03-24T10:07:44.262Z,14.87
2017-03-24T10:08:55.470Z,14.97
2017-03-24T10:10:06.960Z,15.16
2017-03-24T10:11:17.972Z,15.51
2017-03-24T10:12:28.979Z,15.44
2017-03-24T10:13:39.976Z,15.18
2017-03-24T10:14:50.986Z,15.3
2017-03-24T10:16:01.989Z,15.13
2017-03-24T10:17:13.003Z,15.16
2017-03-24T10:18:24.005Z,14.87
2017-03-24T10:19:35.069Z,14.85
2017-03-24T10:20:46.067Z,15.01
2017-03-24T10:21:57.077Z,14.9
2017-03-24T10:23:08.274Z,14.86
2017-03-24T10:24:19.275Z,14.74
2017-03-24T10:25:30.474Z,14.56
2017-03-24T10:26:41.487Z,14.66
2017-03-24T10:27:52.691Z,14.49
2017-03-24T10:29:03.689Z,14.44
2017-03-24T10:30:14.894Z,14.61
2017-03-24T10:31:25.895Z,14.86
2017-03-24T10:32:36.897Z,15.01
2017-03-24T10:33:47.896Z,14.94
2017-03-24T10:34:58.944Z,14.85
2017-03-24T10:36:09.955Z,14.89
2017-03-24T10:37:20.968Z,14.85
2017-03-24T10:38:32.172Z,14.6
2017-03-24T10:39:43.177Z,14.53
2017-03-24T10:40:54.185Z,14.61
2017-03-24T10:42:05.186Z,14.64
2017-03-24T10:43:16.190Z,14.93
2017-03-24T10:44:27.207Z,15.2
2017-03-24T10:45:38.204Z,15.33
2017-03-24T10:46:49.212Z,15.62
2017-03-24T10:48:00.215Z,15.75
2017-03-24T10:49:11.220Z,15.71
2017-03-24T10:50:22.222Z,15.88
2017-03-24T10:51:33.479Z,16
2017-03-24T10:52:44.487Z,16.06
2017-03-24T10:53:55.492Z,16.02
2017-03-24T10:55:06.695Z,15.84
2017-03-24T10:56:17.701Z,15.65
2017-03-24T10:57:29.105Z,15.84
2017-03-24T10:58:40.108Z,15.67
2017-03-24T10:59:51.113Z,15.63
2017-03-24T11:01:02.106Z,15.77
2017-03-24T11:02:13.164Z,15.91
2017-03-24T11:03:24.162Z,15.99
2017-03-24T11:04:35.166Z,16.44
2017-03-24T11:05:46.168Z,16.62
2017-03-24T11:06:57.172Z,16.63
2017-03-24T11:08:08.178Z,16.62
2017-03-24T11:09:19.182Z,16.66
2017-03-24T11:10:30.194Z,16.63
2017-03-24T11:11:41.197Z,16.67
2017-03-24T11:12:52.444Z,16.9
2017-03-24T11:14:03.651Z,17.09
2017-03-24T11:15:14.656Z,17
2017-03-24T11:16:25.652Z,17.28
2017-03-24T11:17:36.662Z,17.32
2017-03-24T11:18:47.663Z,17.32
2017-03-24T11:19:58.869Z,17.52
2017-03-24T11:21:09.862Z,17.54
2017-03-24T11:22:20.866Z,17.49
2017-03-24T11:23:32.063Z,17.47
2017-03-24T11:24:43.061Z,17.55
2017-03-24T11:25:54.266Z,17.68
2017-03-24T11:27:05.266Z,17.21
2017-03-24T11:28:16.272Z,17.17
2017-03-24T11:29:27.333Z,17.27
2017-03-24T11:30:38.336Z,17.3
2017-03-24T11:31:49.328Z,17.05
2017-03-24T11:33:00.335Z,16.9
2017-03-24T11:34:11.345Z,16.92
2017-03-24T11:35:22.355Z,16.92
2017-03-24T11:36:33.358Z,16.92
2017-03-24T11:37:44.364Z,16.76
2017-03-24T11:38:55.383Z,16.72
2017-03-24T11:40:06.432Z,16.97
2017-03-24T11:41:17.433Z,17.05
2017-03-24T11:42:28.443Z,16.91
2017-03-24T11:43:39.446Z,16.62
2017-03-24T11:44:50.445Z,16.9
2017-03-24T11:46:01.447Z,16.84
2017-03-24T11:47:12.467Z,16.67
2017-03-24T11:48:23.469Z,16.51
2017-03-24T11:49:34.473Z,16.51
2017-03-24T11:50:45.513Z,16.42
2017-03-24T11:51:56.516Z,16.47
2017-03-24T11:53:07.525Z,16.51
2017-03-24T11:54:18.933Z,16.67
2017-03-24T11:55:29.930Z,16.73
2017-03-24T11:56:40.931Z,16.94
2017-03-24T11:57:51.937Z,17.21
2017-03-24T11:59:02.939Z,17.27
2017-03-24T12:00:13.942Z,17.27
2017-03-24T12:01:25.135Z,17
2017-03-24T12:02:36.587Z,16.91
2017-03-24T12:03:47.589Z,17.09
2017-03-24T12:04:58.610Z,17.1
2017-03-24T12:06:09.810Z,17.03
2017-03-24T12:07:21.010Z,17.12
2017-03-24T12:08:32.015Z,16.99
2017-03-24T12:09:43.008Z,16.91
2017-03-24T12:10:54.213Z,16.9
2017-03-24T12:12:05.467Z,16.97
2017-03-24T12:13:16.477Z,16.82
2017-03-24T12:14:27.476Z,16.87
2017-03-24T12:15:38.687Z,17.03
2017-03-24T12:16:49.688Z,17.21
2017-03-24T12:18:00.687Z,17.27
2017-03-24T12:19:11.895Z,17.15
2017-03-24T12:20:23.091Z,17.02
2017-03-24T12:21:34.091Z,16.94
2017-03-24T12:22:45.337Z,16.85
2017-03-24T12:23:56.331Z,16.87
2017-03-24T12:25:07.322Z,16.88
2017-03-24T12:26:18.356Z,16.97
2017-03-24T12:27:29.358Z,16.92
2017-03-24T12:28:40.405Z,16.84
2017-03-24T12:29:51.407Z,16.94
2017-03-24T12:31:02.607Z,16.77
2017-03-24T12:32:13.816Z,16.66
2017-03-24T12:33:24.862Z,16.72
2017-03-24T12:34:35.877Z,16.81
2017-03-24T12:35:46.880Z,16.54
2017-03-24T12:36:57.881Z,16.3
2017-03-24T12:38:08.887Z,16.32
2017-03-24T12:39:19.893Z,16.55
2017-03-24T12:40:31.155Z,16.57
2017-03-24T12:41:42.153Z,16.65
2017-03-24T12:42:53.149Z,16.66
2017-03-24T12:44:04.150Z,16.67
2017-03-24T12:45:15.143Z,16.63
2017-03-24T12:46:26.137Z,16.62
2017-03-24T12:47:37.141Z,16.7
2017-03-24T12:48:48.535Z,16.77
2017-03-24T12:49:59.985Z,16.72
2017-03-24T12:51:10.985Z,16.39
2017-03-24T12:52:21.982Z,16.39
2017-03-24T12:53:32.988Z,16.34
2017-03-24T12:54:43.993Z,16.32
2017-03-24T12:55:55.006Z,16.3
2017-03-24T12:57:06.007Z,16.33
2017-03-24T12:58:16.999Z,16.14
2017-03-24T12:59:27.990Z,16.07
2017-03-24T13:00:38.989Z,15.99
2017-03-24T13:01:50.206Z,16.02
2017-03-24T13:03:01.215Z,16.25
2017-03-24T13:04:12.605Z,16.21
2017-03-24T13:05:23.654Z,16.42
2017-03-24T13:06:34.654Z,16.52
2017-03-24T13:07:45.653Z,16.7
2017-03-24T13:08:56.663Z,16.87
2017-03-24T13:10:07.859Z,16.72
2017-03-24T13:11:18.864Z,16.4
2017-03-24T13:12:29.858Z,16.07
2017-03-24T13:13:41.055Z,15.93
2017-03-24T13:14:52.255Z,15.74
2017-03-24T13:16:03.259Z,15.49
2017-03-24T13:17:14.263Z,15.51
2017-03-24T13:18:25.274Z,15.55
2017-03-24T13:19:36.277Z,15.58
2017-03-24T13:20:47.287Z,15.52
2017-03-24T13:21:58.533Z,15.52
2017-03-24T13:23:09.536Z,15.41
2017-03-24T13:24:20.540Z,15.35
2017-03-24T13:25:31.531Z,15.26
2017-03-24T13:26:42.532Z,15.34
2017-03-24T13:27:53.728Z,15.34
2017-03-24T13:29:04.732Z,15.44
2017-03-24T13:30:15.735Z,15.34
2017-03-24T13:31:26.944Z,15.25
2017-03-24T13:32:38.005Z,15.23
2017-03-24T13:33:49.203Z,15.1
2017-03-24T13:35:00.414Z,15.2
2017-03-24T13:36:11.416Z,15.35
2017-03-24T13:37:22.449Z,15.4
2017-03-24T13:38:33.461Z,15.53
2017-03-24T13:39:44.658Z,15.67
2017-03-24T13:40:55.662Z,15.52
2017-03-24T13:42:06.859Z,15.52
2017-03-24T13:43:18.105Z,15.25
2017-03-24T13:44:29.103Z,15.22
2017-03-24T13:45:40.132Z,15.08
2017-03-24T13:46:51.136Z,15.19
2017-03-24T13:48:02.137Z,15.3
2017-03-24T13:49:13.139Z,15.31
2017-03-24T13:50:24.141Z,15.37
2017-03-24T13:51:35.166Z,15.37
2017-03-24T13:52:46.167Z,15.34
2017-03-24T13:53:57.373Z,15.31
2017-03-24T13:55:08.624Z,15.25
2017-03-24T13:56:19.613Z,15.15
2017-03-24T13:57:30.621Z,15.23
2017-03-24T13:58:41.617Z,15.33
2017-03-24T13:59:52.611Z,15.16
2017-03-24T14:01:03.616Z,15.15
2017-03-24T14:02:14.820Z,14.95
2017-03-24T14:03:26.021Z,15
2017-03-24T14:04:37.304Z,15.18
2017-03-24T14:05:48.308Z,15.18
2017-03-24T14:06:59.309Z,15.18
2017-03-24T14:08:10.300Z,15.19
2017-03-24T14:09:21.503Z,15.19
2017-03-24T14:10:32.503Z,15.18
2017-03-24T14:11:43.497Z,15.22
2017-03-24T14:12:54.495Z,15.16
2017-03-24T14:14:05.691Z,15.08
2017-03-24T14:15:16.685Z,14.98
2017-03-24T14:16:27.681Z,14.95
2017-03-24T14:17:38.676Z,14.95
2017-03-24T14:18:49.675Z,15.08
2017-03-24T14:20:00.678Z,14.95
2017-03-24T14:21:11.925Z,15.13
2017-03-24T14:22:22.914Z,15.08
2017-03-24T14:23:33.915Z,15.13
2017-03-24T14:24:45.161Z,15.18
2017-03-24T14:25:56.151Z,15.16
2017-03-24T14:27:07.138Z,15.15
2017-03-24T14:28:18.136Z,15.05
2017-03-24T14:29:29.125Z,14.87
2017-03-24T14:30:40.119Z,14.82
2017-03-24T14:31:51.115Z,14.9
2017-03-24T14:33:02.117Z,15.15
2017-03-24T14:34:13.120Z,15.12
2017-03-24T14:35:24.118Z,15.16
2017-03-24T14:36:35.172Z,15.19
2017-03-24T14:37:46.155Z,15.16
2017-03-24T14:38:57.160Z,15.15
2017-03-24T14:40:08.163Z,15.08
2017-03-24T14:41:19.363Z,15.07
2017-03-24T14:42:30.350Z,15.05
2017-03-24T14:43:41.337Z,14.98
2017-03-24T14:44:52.525Z,14.94
2017-03-24T14:46:03.520Z,15.04
2017-03-24T14:47:14.566Z,15.1
2017-03-24T14:48:25.558Z,15.08
2017-03-24T14:49:36.762Z,15.12
2017-03-24T14:50:47.753Z,14.97
2017-03-24T14:51:58.754Z,14.95
2017-03-24T14:53:09.953Z,14.82
2017-03-24T14:54:20.944Z,14.83
2017-03-24T14:55:31.935Z,14.74
2017-03-24T14:56:43.129Z,14.79
2017-03-24T14:57:54.379Z,14.71
2017-03-24T14:59:05.580Z,14.74
2017-03-24T15:00:16.579Z,14.75
2017-03-24T15:01:27.778Z,14.77
2017-03-24T15:02:38.772Z,14.69
2017-03-24T15:03:49.763Z,14.74
2017-03-24T15:05:00.761Z,14.64
2017-03-24T15:06:11.757Z,14.6
2017-03-24T15:07:22.753Z,14.6
2017-03-24T15:08:33.747Z,14.59
2017-03-24T15:09:44.748Z,14.61
2017-03-24T15:10:55.742Z,14.6
2017-03-24T15:12:06.737Z,14.63
2017-03-24T15:13:17.724Z,14.46
2017-03-24T15:14:28.964Z,14.44
2017-03-24T15:15:40.167Z,14.34
2017-03-24T15:16:51.159Z,14.39
2017-03-24T15:18:02.161Z,14.45
2017-03-24T15:19:13.147Z,14.46
2017-03-24T15:20:24.135Z,14.49
2017-03-24T15:21:35.169Z,14.46
2017-03-24T15:22:46.208Z,14.56
2017-03-24T15:23:57.208Z,14.49
2017-03-24T15:25:08.450Z,14.34
2017-03-24T15:26:19.498Z,14.41
2017-03-24T15:27:30.695Z,14.31
2017-03-24T15:28:41.681Z,14.21
2017-03-24T15:29:52.674Z,14.24
2017-03-24T15:31:03.668Z,14.09